createdAt,value
2022-08-19T00:02:50.155Z,27.74
2022-08-19T00:05:53.044Z,27.84
2022-08-19T00:08:56.567Z,27.76
2022-08-19T00:11:59.837Z,27.69
2022-08-19T00:15:02.095Z,27.75
2022-08-19T00:18:04.680Z,27.69
2022-08-19T00:21:10.478Z,27.55
2022-08-19T00:24:14.868Z,27.67
2022-08-19T00:27:25.549Z,27.55
2022-08-19T00:30:29.437Z,27.52
2022-08-19T00:33:35.648Z,27.49
2022-08-19T00:36:38.600Z,27.46
2022-08-19T00:39:40.978Z,27.55
2022-08-19T00:42:44.039Z,27.49
2022-08-19T00:45:46.311Z,27.46
2022-08-19T00:48:48.817Z,27.42
2022-08-19T00:51:54.904Z,27.41
2022-08-19T00:54:59.534Z,27.38
2022-08-19T00:58:09.067Z,27.29
2022-08-19T01:01:11.947Z,27.28
2022-08-19T01:04:14.691Z,27.35
2022-08-19T01:07:19.695Z,27.31
2022-08-19T01:10:26.493Z,27.22
2022-08-19T01:13:49.017Z,27.19
2022-08-19T01:16:55.481Z,27.18
2022-08-19T01:19:58.156Z,27.17
2022-08-19T01:23:01.493Z,27.21
2022-08-19T01:26:04.073Z,27.24
2022-08-19T01:29:08.937Z,27.19
2022-08-19T01:32:32.035Z,27.16
2022-08-19T01:35:36.373Z,27.14
2022-08-19T01:38:44.163Z,27.11
2022-08-19T01:41:48.857Z,26.99
2022-08-19T01:44:51.365Z,27.07
2022-08-19T01:48:01.377Z,27.00
2022-08-19T01:51:06.032Z,27.04
2022-08-19T01:54:12.837Z,27.02
2022-08-19T01:57:16.538Z,27.01
2022-08-19T02:00:23.279Z,26.98
2022-08-19T02:03:26.163Z,26.92
2022-08-19T02:06:29.384Z,26.88
2022-08-19T02:09:33.174Z,26.74
2022-08-19T02:12:36.317Z,26.74
2022-08-19T02:15:41.012Z,26.77
2022-08-19T02:18:43.212Z,26.67
2022-08-19T02:21:46.069Z,26.61
2022-08-19T02:24:48.953Z,26.63
2022-08-19T02:27:51.543Z,26.48
2022-08-19T02:30:53.831Z,26.56
2022-08-19T02:33:57.131Z,26.46
2022-08-19T02:37:03.469Z,26.55
2022-08-19T02:40:12.465Z,26.51
2022-08-19T02:43:15.134Z,26.50
2022-08-19T02:46:22.560Z,26.48
2022-08-19T02:49:24.944Z,26.38
2022-08-19T02:52:28.342Z,26.27
2022-08-19T02:55:30.609Z,26.21
2022-08-19T02:58:49.438Z,26.25
2022-08-19T03:01:51.855Z,26.28
2022-08-19T03:04:54.499Z,26.13
2022-08-19T03:07:56.763Z,26.21
2022-08-19T03:10:59.373Z,26.07
2022-08-19T03:14:03.806Z,26.19
2022-08-19T03:17:06.461Z,26.07
2022-08-19T03:20:09.108Z,26.05
2022-08-19T03:23:13.586Z,26.12
2022-08-19T03:26:17.099Z,26.03
2022-08-19T03:29:31.058Z,26.00
2022-08-19T03:32:34.359Z,26.07
2022-08-19T03:35:40.261Z,26.06
2022-08-19T03:38:56.374Z,25.99
2022-08-19T03:42:31.845Z,25.96
2022-08-19T03:45:26.217Z,25.91
2022-08-19T03:48:32.479Z,25.86
2022-08-19T03:51:38.997Z,25.76
2022-08-19T03:54:41.527Z,25.81
2022-08-19T03:57:43.816Z,25.78
2022-08-19T04:00:46.395Z,25.76
2022-08-19T04:03:50.094Z,25.76
2022-08-19T04:06:53.140Z,25.63
2022-08-19T04:09:55.796Z,25.73
2022-08-19T04:12:58.277Z,25.64
2022-08-19T04:16:00.809Z,25.69
2022-08-19T04:19:05.343Z,25.78
2022-08-19T04:22:08.211Z,25.80
2022-08-19T04:25:11.054Z,25.75
2022-08-19T04:28:13.988Z,25.71
2022-08-19T04:31:22.114Z,25.75
2022-08-19T04:34:27.211Z,25.77
2022-08-19T04:37:35.165Z,25.91
2022-08-19T04:41:10.256Z,25.90
2022-08-19T04:44:13.339Z,25.88
2022-08-19T04:47:15.833Z,25.94
2022-08-19T04:50:42.147Z,25.99
2022-08-19T04:53:47.863Z,25.93
2022-08-19T04:56:51.012Z,25.97
2022-08-19T04:59:56.859Z,26.02
2022-08-19T05:02:59.008Z,26.16
2022-08-19T05:06:08.576Z,25.99
2022-08-19T05:09:10.872Z,26.15
2022-08-19T05:12:13.538Z,26.09
2022-08-19T05:15:15.802Z,26.19
2022-08-19T05:18:36.728Z,26.07
2022-08-19T05:21:59.588Z,26.08
2022-08-19T05:25:13.375Z,26.17
2022-08-19T05:28:15.901Z,26.29
2022-08-19T05:31:18.412Z,26.38
2022-08-19T05:34:22.980Z,26.36
2022-08-19T05:37:27.744Z,26.40
2022-08-19T05:40:30.407Z,26.54
2022-08-19T05:43:33.441Z,26.61
2022-08-19T05:46:38.039Z,26.67
2022-08-19T05:49:40.537Z,26.68
2022-08-19T05:52:54.462Z,26.73
2022-08-19T05:55:56.975Z,26.79
2022-08-19T05:59:01.912Z,26.82
2022-08-19T06:02:04.628Z,26.76
2022-08-19T06:05:10.102Z,26.98
2022-08-19T06:08:12.391Z,26.99
2022-08-19T06:11:38.097Z,27.11
2022-08-19T06:14:42.500Z,27.13
2022-08-19T06:17:48.119Z,27.20
2022-08-19T06:20:55.751Z,27.40
2022-08-19T06:23:59.300Z,27.36
2022-08-19T06:27:02.037Z,27.53
2022-08-19T06:30:05.799Z,27.65
2022-08-19T06:33:08.417Z,27.78
2022-08-19T06:36:25.897Z,27.93
2022-08-19T06:39:31.964Z,28.12
2022-08-19T06:42:35.710Z,28.21
2022-08-19T06:45:40.986Z,28.37
2022-08-19T06:48:48.911Z,28.60
2022-08-19T06:55:25.498Z,28.97
2022-08-19T06:58:30.281Z,29.14
2022-08-19T07:01:47.596Z,29.45
2022-08-19T07:04:52.799Z,29.71
2022-08-19T07:08:04.858Z,29.57
2022-08-19T07:11:11.303Z,30.09
2022-08-19T07:14:22.051Z,30.35
2022-08-19T07:17:24.526Z,30.58
2022-08-19T07:20:28.652Z,30.95
2022-08-19T07:23:45.708Z,31.23
2022-08-19T07:26:51.699Z,31.08
2022-08-19T07:30:26.284Z,31.43
2022-08-19T07:33:55.444Z,31.59
2022-08-19T07:37:04.884Z,32.05
2022-08-19T07:40:08.839Z,32.29
2022-08-19T07:43:23.336Z,32.64
2022-08-19T07:46:29.666Z,32.70
2022-08-19T07:49:32.725Z,33.13
2022-08-19T07:52:38.038Z,33.53
2022-08-19T07:55:44.270Z,33.77
2022-08-19T07:58:49.580Z,34.15
2022-08-19T08:01:54.847Z,34.46
2022-08-19T08:05:16.208Z,34.77
2022-08-19T08:08:37.322Z,34.87
2022-08-19T08:12:01.988Z,35.38
2022-08-19T08:15:12.497Z,35.66
2022-08-19T08:18:15.252Z,36.21
2022-08-19T08:21:17.900Z,36.37
2022-08-19T08:24:21.207Z,36.56
2022-08-19T08:27:26.422Z,36.71
2022-08-19T08:30:33.583Z,36.91
2022-08-19T08:33:36.703Z,37.12
2022-08-19T08:36:43.600Z,37.20
2022-08-19T08:39:45.900Z,37.50
2022-08-19T08:46:30.560Z,38.01
2022-08-19T08:49:40.363Z,38.37
2022-08-19T08:52:53.037Z,38.77
2022-08-19T08:55:57.408Z,39.10
2022-08-19T08:59:09.396Z,39.19
2022-08-19T09:02:12.059Z,39.45
2022-08-19T09:05:16.634Z,39.77
2022-08-19T09:08:44.258Z,39.72
2022-08-19T09:11:59.118Z,39.92
2022-08-19T09:15:06.468Z,39.96
2022-08-19T09:18:15.069Z,40.00
2022-08-19T09:21:30.592Z,40.08
2022-08-19T09:24:36.819Z,40.42
2022-08-19T09:27:43.763Z,40.33
2022-08-19T09:30:46.027Z,40.59
2022-08-19T09:33:50.427Z,41.01
2022-08-19T09:36:56.197Z,41.29
2022-08-19T09:40:01.283Z,41.35
2022-08-19T09:43:15.028Z,41.70
2022-08-19T09:46:38.557Z,41.93
2022-08-19T09:49:41.266Z,41.96
2022-08-19T09:52:55.399Z,42.05
2022-08-19T09:55:59.854Z,42.23
2022-08-19T09:59:05.208Z,42.17
2022-08-19T10:05:58.176Z,42.21
2022-08-19T10:09:01.398Z,42.48
2022-08-19T10:12:06.153Z,42.61
2022-08-19T10:15:09.353Z,42.74
2022-08-19T10:18:12.227Z,42.42
2022-08-19T10:21:20.578Z,42.85
2022-08-19T10:24:25.384Z,42.83
2022-08-19T10:27:28.001Z,42.92
2022-08-19T10:30:36.909Z,43.22
2022-08-19T10:33:53.563Z,42.92
2022-08-19T10:37:03.610Z,43.16
2022-08-19T10:40:09.481Z,43.10
2022-08-19T10:43:12.236Z,42.91
2022-08-19T10:46:18.963Z,42.71
2022-08-19T10:49:21.680Z,42.49
2022-08-19T10:52:38.787Z,42.45
2022-08-19T10:56:01.148Z,42.58
2022-08-19T10:59:05.232Z,42.72
2022-08-19T11:02:11.382Z,42.52
2022-08-19T11:05:15.652Z,42.64
2022-08-19T11:08:23.823Z,42.88
2022-08-19T11:11:27.938Z,42.89
2022-08-19T11:14:33.946Z,43.00
2022-08-19T11:17:37.015Z,42.92
2022-08-19T11:20:39.658Z,43.08
2022-08-19T11:23:42.057Z,43.13
2022-08-19T11:26:52.008Z,42.63
2022-08-19T11:29:55.103Z,42.97
2022-08-19T11:32:57.631Z,43.11
2022-08-19T11:36:01.726Z,42.68
2022-08-19T11:39:06.301Z,42.95
2022-08-19T11:42:28.956Z,42.94
2022-08-19T11:45:31.533Z,42.79
2022-08-19T11:48:34.443Z,42.99
2022-08-19T11:51:37.513Z,43.00
2022-08-19T11:54:42.276Z,42.93
2022-08-19T11:57:44.859Z,42.99
2022-08-19T12:00:47.324Z,43.08
2022-08-19T12:03:52.786Z,42.99
2022-08-19T12:06:55.743Z,42.62
2022-08-19T12:10:00.907Z,42.31
2022-08-19T12:13:05.193Z,42.41
2022-08-19T12:16:13.280Z,42.40
2022-08-19T12:19:16.622Z,42.09
2022-08-19T12:22:25.147Z,41.74
2022-08-19T12:25:27.469Z,41.62
2022-08-19T12:28:30.078Z,41.22
2022-08-19T12:31:32.963Z,40.97
2022-08-19T12:34:38.159Z,40.71
2022-08-19T12:37:46.181Z,40.23
2022-08-19T12:41:13.231Z,40.13
2022-08-19T12:44:16.223Z,39.91
2022-08-19T12:58:27.423Z,38.61
2022-08-19T13:01:52.647Z,39.02
2022-08-19T13:05:59.210Z,39.57
2022-08-19T13:09:32.230Z,39.61
2022-08-19T13:17:16.852Z,39.68
2022-08-19T13:24:54.662Z,39.40
2022-08-19T13:28:34.899Z,39.31
2022-08-19T13:32:17.720Z,38.96
2022-08-19T13:39:49.716Z,38.90
2022-08-19T13:47:04.831Z,38.01
2022-08-19T13:50:13.575Z,38.16
2022-08-19T13:53:41.290Z,37.90
2022-08-19T13:56:57.407Z,37.72
2022-08-19T14:00:08.857Z,37.11
2022-08-19T14:03:18.156Z,37.04
2022-08-19T14:06:25.934Z,37.10
2022-08-19T14:09:59.296Z,36.93
2022-08-19T14:16:57.438Z,36.49
2022-08-19T14:20:10.926Z,36.44
2022-08-19T14:23:46.437Z,36.16
2022-08-19T14:27:00.930Z,35.84
2022-08-19T14:30:35.954Z,35.84
2022-08-19T14:33:52.653Z,35.88
2022-08-19T14:37:45.307Z,35.58
2022-08-19T14:40:50.690Z,35.75
2022-08-19T14:43:57.776Z,35.67
2022-08-19T14:47:00.497Z,35.48
2022-08-19T14:50:21.617Z,35.30
2022-08-19T14:53:24.084Z,35.08
2022-08-19T14:56:30.026Z,35.01
2022-08-19T14:59:32.884Z,34.79
2022-08-19T15:02:35.622Z,34.63
2022-08-19T15:05:38.376Z,34.27
2022-08-19T15:08:44.996Z,33.94
2022-08-19T15:11:48.216Z,33.71
2022-08-19T15:14:56.164Z,33.49
2022-08-19T15:18:04.546Z,33.18
2022-08-19T15:21:08.282Z,33.31
2022-08-19T15:24:15.595Z,33.07
2022-08-19T15:27:18.647Z,33.09
2022-08-19T15:30:26.573Z,32.75
2022-08-19T15:33:29.775Z,32.89
2022-08-19T15:36:34.911Z,32.85
2022-08-19T15:39:41.021Z,32.55
2022-08-19T15:42:44.751Z,32.55
2022-08-19T15:45:49.378Z,32.21
2022-08-19T15:48:56.123Z,32.35
2022-08-19T15:52:01.899Z,32.25
2022-08-19T15:55:06.917Z,32.25
2022-08-19T15:58:30.787Z,32.15
2022-08-19T16:01:52.247Z,32.07
2022-08-19T16:05:13.870Z,31.81
2022-08-19T16:08:16.322Z,31.96
2022-08-19T16:11:23.017Z,31.92
2022-08-19T16:14:28.358Z,31.89
2022-08-19T16:17:34.907Z,31.71
2022-08-19T16:20:37.389Z,31.80
2022-08-19T16:23:42.532Z,31.75
2022-08-19T16:26:50.331Z,31.65
2022-08-19T16:30:02.036Z,31.61
2022-08-19T16:33:10.287Z,31.57
2022-08-19T16:36:12.945Z,31.52
2022-08-19T16:39:16.512Z,31.41
2022-08-19T16:42:30.843Z,31.49
2022-08-19T16:45:33.225Z,31.35
2022-08-19T16:48:42.890Z,31.32
2022-08-19T16:51:47.647Z,31.20
2022-08-19T16:54:50.184Z,31.15
2022-08-19T16:57:53.443Z,31.03
2022-08-19T17:01:03.211Z,31.00
2022-08-19T17:04:06.147Z,30.90
2022-08-19T17:07:10.538Z,30.77
2022-08-19T17:10:12.855Z,30.85
2022-08-19T17:13:16.553Z,30.78
2022-08-19T17:16:25.001Z,30.65
2022-08-19T17:19:28.378Z,30.65
2022-08-19T17:22:30.887Z,30.53
2022-08-19T17:25:34.272Z,30.42
2022-08-19T17:28:36.412Z,30.37
2022-08-19T17:31:40.173Z,30.39
2022-08-19T17:34:42.390Z,30.34
2022-08-19T17:37:45.694Z,30.01
2022-08-19T17:40:49.303Z,29.83
2022-08-19T17:43:52.233Z,29.66
2022-08-19T17:46:56.254Z,29.58
2022-08-19T17:49:59.276Z,29.56
2022-08-19T17:53:02.092Z,29.43
2022-08-19T17:56:04.550Z,29.35
2022-08-19T17:59:07.830Z,29.31
2022-08-19T18:02:16.799Z,29.21
2022-08-19T18:05:27.195Z,29.21
2022-08-19T18:08:29.560Z,29.15
2022-08-19T18:11:32.566Z,28.97
2022-08-19T18:14:38.163Z,28.84
2022-08-19T18:17:41.203Z,29.02
2022-08-19T18:20:44.428Z,29.03
2022-08-19T18:23:47.042Z,29.07
2022-08-19T18:26:49.296Z,28.75
2022-08-19T18:29:52.207Z,28.42
2022-08-19T18:32:54.933Z,28.29
2022-08-19T18:35:59.739Z,28.21
2022-08-19T18:39:20.880Z,28.03
2022-08-19T18:42:42.477Z,27.95
2022-08-19T18:46:07.277Z,27.46
2022-08-19T18:49:18.731Z,27.02
2022-08-19T18:52:25.749Z,26.55
2022-08-19T18:55:31.289Z,26.42
2022-08-19T18:58:35.217Z,26.33
2022-08-19T19:01:47.413Z,26.04
2022-08-19T19:04:51.421Z,25.69
2022-08-19T19:07:56.682Z,25.39
2022-08-19T19:11:07.472Z,25.31
2022-08-19T19:14:23.168Z,25.20
2022-08-19T19:17:34.714Z,25.16
2022-08-19T19:20:41.027Z,25.41
2022-08-19T19:23:43.389Z,25.57
2022-08-19T19:26:47.461Z,25.62
2022-08-19T19:29:52.958Z,25.78
2022-08-19T19:32:56.291Z,26.02
2022-08-19T19:35:58.673Z,26.07
2022-08-19T19:39:03.569Z,25.97
2022-08-19T19:42:12.591Z,25.84
2022-08-19T19:45:23.397Z,25.96
2022-08-19T19:48:28.793Z,25.98
2022-08-19T19:51:32.577Z,25.98
2022-08-19T19:54:40.089Z,26.04
2022-08-19T19:57:59.597Z,26.00
2022-08-19T20:01:09.473Z,25.79
2022-08-19T20:04:13.400Z,25.83
2022-08-19T20:07:38.924Z,25.89
2022-08-19T20:10:43.386Z,25.80
2022-08-19T20:13:45.713Z,25.67
2022-08-19T20:16:50.254Z,25.38
2022-08-19T20:19:53.512Z,25.06
2022-08-19T20:22:56.077Z,25.07
2022-08-19T20:25:58.399Z,24.70
2022-08-19T20:29:13.600Z,24.31
2022-08-19T20:32:36.541Z,23.77
2022-08-19T20:35:39.682Z,23.49
2022-08-19T20:38:43.222Z,23.15
2022-08-19T20:41:46.315Z,22.80
2022-08-19T20:44:48.803Z,22.67
2022-08-19T20:48:01.002Z,22.49
2022-08-19T20:51:04.458Z,22.16
2022-08-19T20:54:07.117Z,22.05
2022-08-19T20:57:11.086Z,21.94
2022-08-19T21:00:15.229Z,21.86
2022-08-19T21:03:25.688Z,21.96
2022-08-19T21:06:31.076Z,21.96
2022-08-19T21:09:38.166Z,21.86
2022-08-19T21:12:41.327Z,21.83
2022-08-19T21:15:46.816Z,22.12
2022-08-19T21:18:49.639Z,22.23
2022-08-19T21:21:53.457Z,22.32
2022-08-19T21:24:55.989Z,22.40
2022-08-19T21:28:00.757Z,22.63
2022-08-19T21:31:05.372Z,22.73
2022-08-19T21:34:18.702Z,22.90
2022-08-19T21:37:25.501Z,23.14
2022-08-19T21:40:31.199Z,23.30
2022-08-19T21:43:35.283Z,23.40
2022-08-19T21:46:37.634Z,23.40
2022-08-19T21:49:40.239Z,23.54
2022-08-19T21:52:42.605Z,23.53
2022-08-19T21:55:52.736Z,23.69
2022-08-19T21:58:56.539Z,23.64
2022-08-19T22:02:15.583Z,23.81
2022-08-19T22:05:23.332Z,23.86
2022-08-19T22:08:27.254Z,23.86
2022-08-19T22:11:29.824Z,24.00
2022-08-19T22:14:33.723Z,23.96
2022-08-19T22:17:36.557Z,23.97
2022-08-19T22:20:38.810Z,23.87
2022-08-19T22:23:43.520Z,23.82
2022-08-19T22:26:45.931Z,23.85
2022-08-19T22:29:52.510Z,23.86
2022-08-19T22:33:00.976Z,23.84
2022-08-19T22:36:07.491Z,23.95
2022-08-19T22:39:09.942Z,23.91
2022-08-19T22:42:12.624Z,23.76
2022-08-19T22:45:17.597Z,23.99
2022-08-19T22:48:23.107Z,23.93
2022-08-19T22:51:43.954Z,23.81
2022-08-19T22:54:53.838Z,23.87
2022-08-19T22:57:57.189Z,23.84
2022-08-19T23:01:00.685Z,23.86
2022-08-19T23:04:06.547Z,23.78
2022-08-19T23:07:09.339Z,23.90
2022-08-19T23:10:11.882Z,23.81
2022-08-19T23:13:17.360Z,23.84
2022-08-19T23:16:19.652Z,23.82
2022-08-19T23:19:25.412Z,23.78
2022-08-19T23:22:30.558Z,23.83
2022-08-19T23:25:35.075Z,23.80
2022-08-19T23:28:56.197Z,23.80
2022-08-19T23:31:59.075Z,23.66
2022-08-19T23:35:01.356Z,23.73
2022-08-19T23:38:06.360Z,23.54
2022-08-19T23:41:11.616Z,23.69
2022-08-19T23:44:15.103Z,23.67
2022-08-19T23:47:17.852Z,23.58
2022-08-19T23:50:21.861Z,23.62
2022-08-19T23:53:25.370Z,23.50
2022-08-19T23:56:27.968Z,23.58
2022-08-19T23:59:30.233Z,23.54
